sensor_id;sensor_type;location;lat;lon;timestamp;P1;durP1;ratioP1;P2;durP2;ratioP2
75096;SDS011;63684;47.964;11.186;2024-03-08T00:00:26;27.97;;;17.80;;
75096;SDS011;63684;47.964;11.186;2024-03-08T00:02:52;33.83;;;18.97;;
75096;SDS011;63684;47.964;11.186;2024-03-08T00:05:19;31.83;;;18.63;;
75096;SDS011;63684;47.964;11.186;2024-03-08T00:07:45;31.77;;;20.23;;
75096;SDS011;63684;47.964;11.186;2024-03-08T00:10:11;30.47;;;19.27;;
75096;SDS011;63684;47.964;11.186;2024-03-08T00:12:38;33.50;;;19.53;;
75096;SDS011;63684;47.964;11.186;2024-03-08T00:15:08;31.60;;;20.50;;
75096;SDS011;63684;47.964;11.186;2024-03-08T00:17:39;33.43;;;19.87;;
75096;SDS011;63684;47.964;11.186;2024-03-08T00:20:05;34.20;;;21.67;;
75096;SDS011;63684;47.964;11.186;2024-03-08T00:22:34;33.63;;;20.57;;
75096;SDS011;63684;47.964;11.186;2024-03-08T00:25:01;35.50;;;22.60;;
75096;SDS011;63684;47.964;11.186;2024-03-08T00:27:27;34.50;;;21.27;;
75096;SDS011;63684;47.964;11.186;2024-03-08T00:29:56;31.57;;;20.67;;
75096;SDS011;63684;47.964;11.186;2024-03-08T00:32:25;26.17;;;16.80;;
75096;SDS011;63684;47.964;11.186;2024-03-08T00:34:55;35.43;;;21.17;;
75096;SDS011;63684;47.964;11.186;2024-03-08T00:37:21;33.67;;;21.13;;
75096;SDS011;63684;47.964;11.186;2024-03-08T00:39:53;33.17;;;21.23;;
75096;SDS011;63684;47.964;11.186;2024-03-08T00:42:19;28.77;;;16.57;;
75096;SDS011;63684;47.964;11.186;2024-03-08T00:44:45;34.23;;;21.20;;
75096;SDS011;63684;47.964;11.186;2024-03-08T00:47:11;34.17;;;22.27;;
75096;SDS011;63684;47.964;11.186;2024-03-08T00:49:36;32.73;;;17.50;;
75096;SDS011;63684;47.964;11.186;2024-03-08T00:52:03;31.67;;;21.07;;
75096;SDS011;63684;47.964;11.186;2024-03-08T00:54:36;32.37;;;19.70;;
75096;SDS011;63684;47.964;11.186;2024-03-08T00:57:02;29.47;;;18.77;;
75096;SDS011;63684;47.964;11.186;2024-03-08T00:59:28;27.97;;;17.40;;
75096;SDS011;63684;47.964;11.186;2024-03-08T01:01:54;33.67;;;22.30;;
75096;SDS011;63684;47.964;11.186;2024-03-08T01:04:20;30.20;;;18.60;;
75096;SDS011;63684;47.964;11.186;2024-03-08T01:06:46;31.17;;;21.00;;
75096;SDS011;63684;47.964;11.186;2024-03-08T01:09:12;41.37;;;21.97;;
75096;SDS011;63684;47.964;11.186;2024-03-08T01:11:38;35.17;;;21.93;;
75096;SDS011;63684;47.964;11.186;2024-03-08T01:14:04;37.93;;;23.13;;
75096;SDS011;63684;47.964;11.186;2024-03-08T01:16:30;39.77;;;23.80;;
75096;SDS011;63684;47.964;11.186;2024-03-08T01:18:58;34.30;;;21.90;;
75096;SDS011;63684;47.964;11.186;2024-03-08T01:21:24;35.90;;;23.00;;
75096;SDS011;63684;47.964;11.186;2024-03-08T01:23:49;35.80;;;22.33;;
75096;SDS011;63684;47.964;11.186;2024-03-08T01:26:15;33.27;;;20.57;;
75096;SDS011;63684;47.964;11.186;2024-03-08T01:28:41;34.00;;;21.30;;
75096;SDS011;63684;47.964;11.186;2024-03-08T01:31:07;33.87;;;21.43;;
75096;SDS011;63684;47.964;11.186;2024-03-08T01:33:32;38.43;;;21.43;;
75096;SDS011;63684;47.964;11.186;2024-03-08T01:35:58;35.43;;;23.43;;
75096;SDS011;63684;47.964;11.186;2024-03-08T01:38:23;39.03;;;23.40;;
75096;SDS011;63684;47.964;11.186;2024-03-08T01:40:49;33.47;;;20.47;;
75096;SDS011;63684;47.964;11.186;2024-03-08T01:43:25;37.73;;;22.50;;
75096;SDS011;63684;47.964;11.186;2024-03-08T01:45:53;39.13;;;22.67;;
75096;SDS011;63684;47.964;11.186;2024-03-08T01:48:19;40.47;;;24.47;;
75096;SDS011;63684;47.964;11.186;2024-03-08T01:50:49;36.27;;;21.53;;
75096;SDS011;63684;47.964;11.186;2024-03-08T01:53:15;42.77;;;24.10;;
75096;SDS011;63684;47.964;11.186;2024-03-08T01:55:42;39.20;;;23.43;;
75096;SDS011;63684;47.964;11.186;2024-03-08T01:58:12;37.03;;;24.47;;
75096;SDS011;63684;47.964;11.186;2024-03-08T02:00:42;37.63;;;23.63;;
75096;SDS011;63684;47.964;11.186;2024-03-08T02:03:09;37.33;;;22.30;;
75096;SDS011;63684;47.964;11.186;2024-03-08T02:05:40;36.03;;;22.13;;
75096;SDS011;63684;47.964;11.186;2024-03-08T02:08:05;40.57;;;21.17;;
75096;SDS011;63684;47.964;11.186;2024-03-08T02:10:32;38.47;;;23.67;;
75096;SDS011;63684;47.964;11.186;2024-03-08T02:12:59;38.40;;;23.87;;
75096;SDS011;63684;47.964;11.186;2024-03-08T02:15:26;41.90;;;24.20;;
75096;SDS011;63684;47.964;11.186;2024-03-08T02:17:52;40.47;;;24.00;;
75096;SDS011;63684;47.964;11.186;2024-03-08T02:20:18;43.60;;;23.40;;
75096;SDS011;63684;47.964;11.186;2024-03-08T02:22:45;35.07;;;21.47;;
75096;SDS011;63684;47.964;11.186;2024-03-08T02:25:11;42.93;;;23.50;;
75096;SDS011;63684;47.964;11.186;2024-03-08T02:27:37;40.20;;;23.33;;
75096;SDS011;63684;47.964;11.186;2024-03-08T02:30:03;35.73;;;23.27;;
75096;SDS011;63684;47.964;11.186;2024-03-08T02:32:30;40.37;;;24.17;;
75096;SDS011;63684;47.964;11.186;2024-03-08T02:34:57;44.27;;;23.70;;
75096;SDS011;63684;47.964;11.186;2024-03-08T02:37:25;42.83;;;25.07;;
75096;SDS011;63684;47.964;11.186;2024-03-08T02:39:50;41.03;;;23.23;;
75096;SDS011;63684;47.964;11.186;2024-03-08T02:42:16;38.17;;;22.27;;
75096;SDS011;63684;47.964;11.186;2024-03-08T02:44:44;39.23;;;22.37;;
75096;SDS011;63684;47.964;11.186;2024-03-08T02:47:10;38.07;;;23.23;;
75096;SDS011;63684;47.964;11.186;2024-03-08T02:49:36;39.10;;;24.57;;
75096;SDS011;63684;47.964;11.186;2024-03-08T02:52:03;32.87;;;22.77;;
75096;SDS011;63684;47.964;11.186;2024-03-08T02:54:30;37.33;;;23.33;;
75096;SDS011;63684;47.964;11.186;2024-03-08T02:56:56;32.90;;;21.67;;
75096;SDS011;63684;47.964;11.186;2024-03-08T02:59:21;38.67;;;23.13;;
75096;SDS011;63684;47.964;11.186;2024-03-08T03:01:47;39.83;;;24.80;;
75096;SDS011;63684;47.964;11.186;2024-03-08T03:04:12;35.53;;;23.03;;
75096;SDS011;63684;47.964;11.186;2024-03-08T03:06:38;32.40;;;20.50;;
75096;SDS011;63684;47.964;11.186;2024-03-08T03:09:03;36.83;;;23.07;;
75096;SDS011;63684;47.964;11.186;2024-03-08T03:11:31;38.27;;;23.63;;
75096;SDS011;63684;47.964;11.186;2024-03-08T03:13:57;39.47;;;23.00;;
75096;SDS011;63684;47.964;11.186;2024-03-08T03:16:22;39.73;;;24.87;;
75096;SDS011;63684;47.964;11.186;2024-03-08T03:18:48;36.40;;;22.27;;
75096;SDS011;63684;47.964;11.186;2024-03-08T03:21:14;37.90;;;23.17;;
75096;SDS011;63684;47.964;11.186;2024-03-08T03:23:40;40.33;;;24.60;;
75096;SDS011;63684;47.964;11.186;2024-03-08T03:26:06;35.80;;;23.43;;
75096;SDS011;63684;47.964;11.186;2024-03-08T03:28:37;40.43;;;23.77;;
75096;SDS011;63684;47.964;11.186;2024-03-08T03:31:06;34.17;;;21.13;;
75096;SDS011;63684;47.964;11.186;2024-03-08T03:33:32;38.60;;;23.77;;
75096;SDS011;63684;47.964;11.186;2024-03-08T03:35:59;35.33;;;22.27;;
75096;SDS011;63684;47.964;11.186;2024-03-08T03:38:26;38.07;;;22.13;;
75096;SDS011;63684;47.964;11.186;2024-03-08T03:40:53;33.37;;;22.83;;
75096;SDS011;63684;47.964;11.186;2024-03-08T03:43:22;36.37;;;23.40;;
75096;SDS011;63684;47.964;11.186;2024-03-08T03:45:48;38.33;;;23.13;;
75096;SDS011;63684;47.964;11.186;2024-03-08T03:48:14;43.53;;;22.27;;
75096;SDS011;63684;47.964;11.186;2024-03-08T03:50:40;37.43;;;22.67;;
75096;SDS011;63684;47.964;11.186;2024-03-08T03:53:05;33.83;;;21.33;;
75096;SDS011;63684;47.964;11.186;2024-03-08T03:55:33;35.27;;;21.27;;
75096;SDS011;63684;47.964;11.186;2024-03-08T03:57:59;37.57;;;22.47;;
75096;SDS011;63684;47.964;11.186;2024-03-08T04:00:26;34.80;;;22.97;;
75096;SDS011;63684;47.964;11.186;2024-03-08T04:02:52;37.93;;;21.53;;
75096;SDS011;63684;47.964;11.186;2024-03-08T04:05:17;26.17;;;16.07;;
75096;SDS011;63684;47.964;11.186;2024-03-08T04:07:43;37.83;;;22.47;;
75096;SDS011;63684;47.964;11.186;2024-03-08T04:10:10;34.23;;;22.00;;
75096;SDS011;63684;47.964;11.186;2024-03-08T04:12:36;41.47;;;23.67;;
75096;SDS011;63684;47.964;11.186;2024-03-08T04:15:02;40.70;;;20.60;;
75096;SDS011;63684;47.964;11.186;2024-03-08T04:17:28;36.97;;;23.37;;
75096;SDS011;63684;47.964;11.186;2024-03-08T04:19:54;38.07;;;22.83;;
75096;SDS011;63684;47.964;11.186;2024-03-08T04:22:20;43.50;;;23.77;;
75096;SDS011;63684;47.964;11.186;2024-03-08T04:24:46;43.13;;;23.37;;
75096;SDS011;63684;47.964;11.186;2024-03-08T04:27:11;39.00;;;24.10;;
75096;SDS011;63684;47.964;11.186;2024-03-08T04:29:37;35.43;;;21.10;;
75096;SDS011;63684;47.964;11.186;2024-03-08T04:32:04;37.13;;;22.03;;
75096;SDS011;63684;47.964;11.186;2024-03-08T04:34:30;38.03;;;23.63;;
75096;SDS011;63684;47.964;11.186;2024-03-08T04:36:59;35.43;;;22.17;;
75096;SDS011;63684;47.964;11.186;2024-03-08T04:39:25;41.90;;;23.20;;
75096;SDS011;63684;47.964;11.186;2024-03-08T04:41:53;40.53;;;23.83;;
75096;SDS011;63684;47.964;11.186;2024-03-08T04:44:20;39.63;;;22.90;;
75096;SDS011;63684;47.964;11.186;2024-03-08T04:46:45;39.97;;;24.13;;
75096;SDS011;63684;47.964;11.186;2024-03-08T04:49:12;41.10;;;24.53;;
75096;SDS011;63684;47.964;11.186;2024-03-08T04:51:38;43.30;;;23.63;;
75096;SDS011;63684;47.964;11.186;2024-03-08T04:54:04;35.23;;;21.07;;
75096;SDS011;63684;47.964;11.186;2024-03-08T04:56:30;40.13;;;23.67;;
75096;SDS011;63684;47.964;11.186;2024-03-08T04:58:55;36.77;;;22.23;;
75096;SDS011;63684;47.964;11.186;2024-03-08T05:01:21;38.03;;;23.43;;
75096;SDS011;63684;47.964;11.186;2024-03-08T05:03:47;37.33;;;23.20;;
75096;SDS011;63684;47.964;11.186;2024-03-08T05:06:15;36.53;;;21.57;;
75096;SDS011;63684;47.964;11.186;2024-03-08T05:08:41;39.40;;;23.33;;
75096;SDS011;63684;47.964;11.186;2024-03-08T05:11:07;34.50;;;22.63;;
75096;SDS011;63684;47.964;11.186;2024-03-08T05:13:32;36.97;;;22.23;;
75096;SDS011;63684;47.964;11.186;2024-03-08T05:15:59;43.87;;;24.73;;
75096;SDS011;63684;47.964;11.186;2024-03-08T05:18:25;31.90;;;19.97;;
75096;SDS011;63684;47.964;11.186;2024-03-08T05:20:53;40.27;;;22.60;;
75096;SDS011;63684;47.964;11.186;2024-03-08T05:23:19;41.07;;;24.60;;
75096;SDS011;63684;47.964;11.186;2024-03-08T05:25:45;39.47;;;23.77;;
75096;SDS011;63684;47.964;11.186;2024-03-08T05:28:12;39.90;;;23.80;;
75096;SDS011;63684;47.964;11.186;2024-03-08T05:30:38;38.80;;;22.93;;
75096;SDS011;63684;47.964;11.186;2024-03-08T05:33:04;37.87;;;23.77;;
75096;SDS011;63684;47.964;11.186;2024-03-08T05:35:29;41.30;;;23.93;;
75096;SDS011;63684;47.964;11.186;2024-03-08T05:37:55;33.47;;;19.87;;
75096;SDS011;63684;47.964;11.186;2024-03-08T05:40:21;41.87;;;23.70;;
75096;SDS011;63684;47.964;11.186;2024-03-08T05:42:46;37.80;;;22.80;;
75096;SDS011;63684;47.964;11.186;2024-03-08T05:45:12;34.17;;;22.77;;
75096;SDS011;63684;47.964;11.186;2024-03-08T05:47:39;38.17;;;23.37;;
75096;SDS011;63684;47.964;11.186;2024-03-08T05:50:05;34.00;;;22.17;;
75096;SDS011;63684;47.964;11.186;2024-03-08T05:52:35;46.17;;;23.77;;
75096;SDS011;63684;47.964;11.186;2024-03-08T05:55:01;36.30;;;22.87;;
75096;SDS011;63684;47.964;11.186;2024-03-08T05:57:28;37.20;;;23.23;;
75096;SDS011;63684;47.964;11.186;2024-03-08T05:59:53;39.90;;;22.17;;
75096;SDS011;63684;47.964;11.186;2024-03-08T06:02:19;37.43;;;22.07;;
75096;SDS011;63684;47.964;11.186;2024-03-08T06:04:47;43.10;;;21.80;;
75096;SDS011;63684;47.964;11.186;2024-03-08T06:07:13;44.20;;;22.37;;
75096;SDS011;63684;47.964;11.186;2024-03-08T06:09:38;38.40;;;22.27;;
75096;SDS011;63684;47.964;11.186;2024-03-08T06:12:05;39.40;;;22.70;;
75096;SDS011;63684;47.964;11.186;2024-03-08T06:14:31;36.87;;;23.03;;
75096;SDS011;63684;47.964;11.186;2024-03-08T06:16:57;34.33;;;21.93;;
75096;SDS011;63684;47.964;11.186;2024-03-08T06:19:23;36.87;;;22.13;;
75096;SDS011;63684;47.964;11.186;2024-03-08T06:21:48;36.07;;;22.53;;
75096;SDS011;63684;47.964;11.186;2024-03-08T06:24:14;35.03;;;22.13;;
75096;SDS011;63684;47.964;11.186;2024-03-08T06:26:40;34.43;;;22.53;;
75096;SDS011;63684;47.964;11.186;2024-03-08T06:29:06;38.97;;;22.77;;
75096;SDS011;63684;47.964;11.186;2024-03-08T06:31:34;35.57;;;23.13;;
75096;SDS011;63684;47.964;11.186;2024-03-08T06:34:04;37.17;;;23.33;;
75096;SDS011;63684;47.964;11.186;2024-03-08T06:36:33;40.27;;;22.50;;
75096;SDS011;63684;47.964;11.186;2024-03-08T06:38:58;34.27;;;22.50;;
75096;SDS011;63684;47.964;11.186;2024-03-08T06:41:24;37.00;;;22.10;;
75096;SDS011;63684;47.964;11.186;2024-03-08T06:43:49;31.23;;;20.63;;
75096;SDS011;63684;47.964;11.186;2024-03-08T06:46:18;34.47;;;21.80;;
75096;SDS011;63684;47.964;11.186;2024-03-08T06:48:45;38.07;;;20.10;;
75096;SDS011;63684;47.964;11.186;2024-03-08T06:51:11;30.93;;;19.83;;
75096;SDS011;63684;47.964;11.186;2024-03-08T06:53:36;34.33;;;21.30;;
75096;SDS011;63684;47.964;11.186;2024-03-08T06:56:03;30.47;;;19.47;;
75096;SDS011;63684;47.964;11.186;2024-03-08T06:58:29;35.53;;;20.97;;
75096;SDS011;63684;47.964;11.186;2024-03-08T07:00:54;33.83;;;20.73;;
75096;SDS011;63684;47.964;11.186;2024-03-08T07:03:23;32.07;;;18.87;;
75096;SDS011;63684;47.964;11.186;2024-03-08T07:05:49;44.30;;;21.23;;
75096;SDS011;63684;47.964;11.186;2024-03-08T07:08:15;36.57;;;21.77;;
75096;SDS011;63684;47.964;11.186;2024-03-08T07:10:41;34.00;;;21.37;;
75096;SDS011;63684;47.964;11.186;2024-03-08T07:13:07;32.47;;;20.43;;
75096;SDS011;63684;47.964;11.186;2024-03-08T07:15:33;38.67;;;21.50;;
75096;SDS011;63684;47.964;11.186;2024-03-08T07:17:58;33.87;;;20.13;;
75096;SDS011;63684;47.964;11.186;2024-03-08T07:20:25;32.80;;;19.17;;
75096;SDS011;63684;47.964;11.186;2024-03-08T07:22:50;35.20;;;20.00;;
75096;SDS011;63684;47.964;11.186;2024-03-08T07:25:16;29.33;;;20.10;;
75096;SDS011;63684;47.964;11.186;2024-03-08T07:30:18;32.63;;;19.20;;
75096;SDS011;63684;47.964;11.186;2024-03-08T07:33:06;31.47;;;18.03;;
75096;SDS011;63684;47.964;11.186;2024-03-08T07:35:32;26.07;;;17.63;;
75096;SDS011;63684;47.964;11.186;2024-03-08T07:38:03;28.13;;;17.30;;
75096;SDS011;63684;47.964;11.186;2024-03-08T07:40:36;27.27;;;17.37;;
75096;SDS011;63684;47.964;11.186;2024-03-08T07:43:09;25.13;;;15.40;;
75096;SDS011;63684;47.964;11.186;2024-03-08T07:45:36;27.17;;;17.70;;
75096;SDS011;63684;47.964;11.186;2024-03-08T07:48:04;31.63;;;18.43;;
75096;SDS011;63684;47.964;11.186;2024-03-08T07:50:36;26.13;;;17.70;;
75096;SDS011;63684;47.964;11.186;2024-03-08T07:53:02;24.10;;;16.07;;
75096;SDS011;63684;47.964;11.186;2024-03-08T07:55:29;25.23;;;16.47;;
75096;SDS011;63684;47.964;11.186;2024-03-08T07:57:56;23.77;;;14.83;;
75096;SDS011;63684;47.964;11.186;2024-03-08T08:00:22;26.90;;;17.00;;
75096;SDS011;63684;47.964;11.186;2024-03-08T08:02:49;24.50;;;17.47;;
75096;SDS011;63684;47.964;11.186;2024-03-08T08:05:17;27.03;;;17.03;;
75096;SDS011;63684;47.964;11.186;2024-03-08T08:07:45;26.60;;;17.13;;
75096;SDS011;63684;47.964;11.186;2024-03-08T08:10:14;24.83;;;16.50;;
75096;SDS011;63684;47.964;11.186;2024-03-08T08:12:50;29.97;;;17.57;;
75096;SDS011;63684;47.964;11.186;2024-03-08T08:15:17;28.17;;;16.93;;
75096;SDS011;63684;47.964;11.186;2024-03-08T08:17:46;25.53;;;16.60;;
75096;SDS011;63684;47.964;11.186;2024-03-08T08:20:12;28.60;;;17.37;;
75096;SDS011;63684;47.964;11.186;2024-03-08T08:22:41;28.00;;;16.10;;
75096;SDS011;63684;47.964;11.186;2024-03-08T08:25:10;20.83;;;14.03;;
75096;SDS011;63684;47.964;11.186;2024-03-08T08:27:41;21.87;;;15.83;;
75096;SDS011;63684;47.964;11.186;2024-03-08T08:30:08;21.07;;;13.47;;
75096;SDS011;63684;47.964;11.186;2024-03-08T08:32:34;23.63;;;16.57;;
75096;SDS011;63684;47.964;11.186;2024-03-08T08:35:04;23.00;;;15.87;;
75096;SDS011;63684;47.964;11.186;2024-03-08T08:37:34;20.67;;;14.13;;
75096;SDS011;63684;47.964;11.186;2024-03-08T08:40:02;21.53;;;13.30;;
75096;SDS011;63684;47.964;11.186;2024-03-08T08:42:34;21.17;;;14.83;;
75096;SDS011;63684;47.964;11.186;2024-03-08T08:45:01;20.37;;;13.57;;
75096;SDS011;63684;47.964;11.186;2024-03-08T08:47:26;20.03;;;14.33;;
75096;SDS011;63684;47.964;11.186;2024-03-08T08:49:52;19.57;;;14.33;;
75096;SDS011;63684;47.964;11.186;2024-03-08T08:52:19;18.50;;;12.70;;
75096;SDS011;63684;47.964;11.186;2024-03-08T08:54:45;19.07;;;12.93;;
75096;SDS011;63684;47.964;11.186;2024-03-08T08:57:10;20.50;;;14.13;;
75096;SDS011;63684;47.964;11.186;2024-03-08T08:59:36;20.67;;;14.97;;
75096;SDS011;63684;47.964;11.186;2024-03-08T09:02:05;20.07;;;13.63;;
75096;SDS011;63684;47.964;11.186;2024-03-08T09:04:31;18.70;;;13.50;;
75096;SDS011;63684;47.964;11.186;2024-03-08T09:06:57;20.60;;;14.20;;
75096;SDS011;63684;47.964;11.186;2024-03-08T09:09:23;28.80;;;13.50;;
75096;SDS011;63684;47.964;11.186;2024-03-08T09:11:50;18.73;;;12.70;;
75096;SDS011;63684;47.964;11.186;2024-03-08T09:14:16;20.93;;;14.30;;
75096;SDS011;63684;47.964;11.186;2024-03-08T09:16:42;18.27;;;13.30;;
75096;SDS011;63684;47.964;11.186;2024-03-08T09:19:07;22.90;;;12.97;;
75096;SDS011;63684;47.964;11.186;2024-03-08T09:21:36;19.70;;;12.40;;
75096;SDS011;63684;47.964;11.186;2024-03-08T09:24:02;17.70;;;12.47;;
75096;SDS011;63684;47.964;11.186;2024-03-08T09:26:27;20.47;;;12.27;;
75096;SDS011;63684;47.964;11.186;2024-03-08T09:28:53;17.27;;;11.70;;
75096;SDS011;63684;47.964;11.186;2024-03-08T09:31:21;20.20;;;12.43;;
75096;SDS011;63684;47.964;11.186;2024-03-08T09:33:47;17.77;;;12.33;;
75096;SDS011;63684;47.964;11.186;2024-03-08T09:36:13;16.07;;;11.57;;
75096;SDS011;63684;47.964;11.186;2024-03-08T09:38:39;17.87;;;11.67;;
75096;SDS011;63684;47.964;11.186;2024-03-08T09:41:05;16.17;;;11.17;;
75096;SDS011;63684;47.964;11.186;2024-03-08T09:43:31;16.13;;;11.93;;
75096;SDS011;63684;47.964;11.186;2024-03-08T09:45:56;15.77;;;11.70;;
75096;SDS011;63684;47.964;11.186;2024-03-08T09:48:23;16.53;;;10.80;;
75096;SDS011;63684;47.964;11.186;2024-03-08T09:50:48;15.70;;;11.43;;
75096;SDS011;63684;47.964;11.186;2024-03-08T09:53:14;14.37;;;11.27;;
75096;SDS011;63684;47.964;11.186;2024-03-08T09:55:41;15.73;;;11.27;;
75096;SDS011;63684;47.964;11.186;2024-03-08T09:58:12;18.87;;;11.30;;
75096;SDS011;63684;47.964;11.186;2024-03-08T10:00:56;17.50;;;11.93;;
75096;SDS011;63684;47.964;11.186;2024-03-08T10:03:23;19.60;;;11.57;;
75096;SDS011;63684;47.964;11.186;2024-03-08T10:05:51;16.60;;;12.33;;
75096;SDS011;63684;47.964;11.186;2024-03-08T10:08:17;17.53;;;12.23;;
75096;SDS011;63684;47.964;11.186;2024-03-08T10:10:42;15.87;;;12.20;;
75096;SDS011;63684;47.964;11.186;2024-03-08T10:13:08;17.77;;;11.27;;
75096;SDS011;63684;47.964;11.186;2024-03-08T10:15:35;15.50;;;11.23;;
75096;SDS011;63684;47.964;11.186;2024-03-08T10:18:01;15.43;;;11.90;;
75096;SDS011;63684;47.964;11.186;2024-03-08T10:20:28;16.37;;;11.93;;
75096;SDS011;63684;47.964;11.186;2024-03-08T10:23:01;16.53;;;11.67;;
75096;SDS011;63684;47.964;11.186;2024-03-08T10:25:32;18.43;;;11.90;;
75096;SDS011;63684;47.964;11.186;2024-03-08T10:27:57;15.17;;;11.20;;
75096;SDS011;63684;47.964;11.186;2024-03-08T10:30:23;16.20;;;12.07;;
75096;SDS011;63684;47.964;11.186;2024-03-08T10:32:49;16.00;;;12.37;;
75096;SDS011;63684;47.964;11.186;2024-03-08T10:35:15;17.13;;;12.33;;
75096;SDS011;63684;47.964;11.186;2024-03-08T10:37:45;17.33;;;12.50;;
75096;SDS011;63684;47.964;11.186;2024-03-08T10:40:19;15.07;;;10.83;;
75096;SDS011;63684;47.964;11.186;2024-03-08T10:42:58;16.63;;;11.03;;
75096;SDS011;63684;47.964;11.186;2024-03-08T10:45:34;17.30;;;11.57;;
75096;SDS011;63684;47.964;11.186;2024-03-08T10:51:11;13.47;;;10.37;;
75096;SDS011;63684;47.964;11.186;2024-03-08T10:53:37;15.50;;;11.83;;
75096;SDS011;63684;47.964;11.186;2024-03-08T10:56:06;18.13;;;11.50;;
75096;SDS011;63684;47.964;11.186;2024-03-08T10:58:34;15.17;;;11.37;;
75096;SDS011;63684;47.964;11.186;2024-03-08T11:01:01;15.10;;;10.80;;
75096;SDS011;63684;47.964;11.186;2024-03-08T11:06:05;13.43;;;9.70;;
75096;SDS011;63684;47.964;11.186;2024-03-08T11:08:37;15.33;;;11.30;;
75096;SDS011;63684;47.964;11.186;2024-03-08T11:11:04;13.27;;;9.87;;
75096;SDS011;63684;47.964;11.186;2024-03-08T11:13:40;15.00;;;10.17;;
75096;SDS011;63684;47.964;11.186;2024-03-08T11:16:13;13.23;;;9.63;;
75096;SDS011;63684;47.964;11.186;2024-03-08T11:19:00;15.40;;;10.10;;
75096;SDS011;63684;47.964;11.186;2024-03-08T11:21:33;12.00;;;9.57;;
75096;SDS011;63684;47.964;11.186;2024-03-08T11:24:02;15.03;;;10.27;;
75096;SDS011;63684;47.964;11.186;2024-03-08T11:26:31;14.70;;;10.40;;
75096;SDS011;63684;47.964;11.186;2024-03-08T11:32:11;14.43;;;9.43;;
75096;SDS011;63684;47.964;11.186;2024-03-08T11:34:39;22.23;;;10.70;;
75096;SDS011;63684;47.964;11.186;2024-03-08T11:37:18;12.73;;;9.97;;
75096;SDS011;63684;47.964;11.186;2024-03-08T11:39:47;13.97;;;9.77;;
75096;SDS011;63684;47.964;11.186;2024-03-08T11:42:14;15.47;;;9.77;;
75096;SDS011;63684;47.964;11.186;2024-03-08T11:44:42;11.93;;;8.47;;
75096;SDS011;63684;47.964;11.186;2024-03-08T11:47:10;12.03;;;8.97;;
75096;SDS011;63684;47.964;11.186;2024-03-08T11:49:36;13.23;;;8.80;;
75096;SDS011;63684;47.964;11.186;2024-03-08T11:52:02;13.83;;;8.47;;
75096;SDS011;63684;47.964;11.186;2024-03-08T11:54:28;11.83;;;9.33;;
75096;SDS011;63684;47.964;11.186;2024-03-08T11:56:55;13.73;;;8.93;;
75096;SDS011;63684;47.964;11.186;2024-03-08T11:59:27;12.10;;;8.97;;
75096;SDS011;63684;47.964;11.186;2024-03-08T12:02:03;11.40;;;8.20;;
75096;SDS011;63684;47.964;11.186;2024-03-08T12:04:30;11.73;;;8.77;;
75096;SDS011;63684;47.964;11.186;2024-03-08T12:06:56;11.93;;;8.73;;
75096;SDS011;63684;47.964;11.186;2024-03-08T12:09:26;11.70;;;9.10;;
75096;SDS011;63684;47.964;11.186;2024-03-08T12:11:51;13.53;;;9.43;;
75096;SDS011;63684;47.964;11.186;2024-03-08T12:14:17;19.23;;;9.93;;
75096;SDS011;63684;47.964;11.186;2024-03-08T12:16:43;14.70;;;8.67;;
75096;SDS011;63684;47.964;11.186;2024-03-08T12:19:09;13.27;;;9.07;;
75096;SDS011;63684;47.964;11.186;2024-03-08T12:21:35;12.73;;;8.30;;
75096;SDS011;63684;47.964;11.186;2024-03-08T12:24:02;10.53;;;8.17;;
75096;SDS011;63684;47.964;11.186;2024-03-08T12:26:28;10.27;;;6.87;;
75096;SDS011;63684;47.964;11.186;2024-03-08T12:29:00;13.00;;;9.47;;
75096;SDS011;63684;47.964;11.186;2024-03-08T12:31:59;16.87;;;8.57;;
75096;SDS011;63684;47.964;11.186;2024-03-08T12:34:30;16.93;;;9.10;;
75096;SDS011;63684;47.964;11.186;2024-03-08T12:36:57;10.17;;;7.73;;
75096;SDS011;63684;47.964;11.186;2024-03-08T12:39:22;10.20;;;7.33;;
75096;SDS011;63684;47.964;11.186;2024-03-08T12:41:52;11.00;;;6.83;;
75096;SDS011;63684;47.964;11.186;2024-03-08T12:44:22;10.63;;;7.47;;
75096;SDS011;63684;47.964;11.186;2024-03-08T12:46:48;10.67;;;7.97;;
75096;SDS011;63684;47.964;11.186;2024-03-08T12:49:14;13.87;;;8.60;;
75096;SDS011;63684;47.964;11.186;2024-03-08T12:51:45;18.20;;;9.93;;
75096;SDS011;63684;47.964;11.186;2024-03-08T12:54:11;12.53;;;9.13;;
75096;SDS011;63684;47.964;11.186;2024-03-08T12:56:37;10.53;;;7.97;;
75096;SDS011;63684;47.964;11.186;2024-03-08T12:59:03;12.23;;;9.57;;
75096;SDS011;63684;47.964;11.186;2024-03-08T13:01:30;11.40;;;8.77;;
75096;SDS011;63684;47.964;11.186;2024-03-08T13:03:59;13.60;;;8.67;;
75096;SDS011;63684;47.964;11.186;2024-03-08T13:06:27;14.37;;;9.77;;
75096;SDS011;63684;47.964;11.186;2024-03-08T13:08:54;14.77;;;9.70;;
75096;SDS011;63684;47.964;11.186;2024-03-08T13:11:31;14.43;;;8.83;;
75096;SDS011;63684;47.964;11.186;2024-03-08T13:14:02;11.20;;;8.73;;
75096;SDS011;63684;47.964;11.186;2024-03-08T13:16:29;11.43;;;8.37;;
75096;SDS011;63684;47.964;11.186;2024-03-08T13:18:54;11.87;;;8.80;;
75096;SDS011;63684;47.964;11.186;2024-03-08T13:21:22;12.17;;;8.83;;
75096;SDS011;63684;47.964;11.186;2024-03-08T13:23:49;13.80;;;9.00;;
75096;SDS011;63684;47.964;11.186;2024-03-08T13:26:15;13.23;;;9.10;;
75096;SDS011;63684;47.964;11.186;2024-03-08T13:28:41;12.23;;;9.30;;
75096;SDS011;63684;47.964;11.186;2024-03-08T13:31:21;13.90;;;8.53;;
75096;SDS011;63684;47.964;11.186;2024-03-08T13:33:47;12.93;;;8.73;;
75096;SDS011;63684;47.964;11.186;2024-03-08T13:36:13;12.73;;;9.00;;
75096;SDS011;63684;47.964;11.186;2024-03-08T13:38:46;14.23;;;9.73;;
75096;SDS011;63684;47.964;11.186;2024-03-08T13:41:16;12.20;;;9.90;;
75096;SDS011;63684;47.964;11.186;2024-03-08T13:43:42;12.07;;;9.27;;
75096;SDS011;63684;47.964;11.186;2024-03-08T13:46:11;21.63;;;9.37;;
75096;SDS011;63684;47.964;11.186;2024-03-08T13:48:37;13.80;;;10.37;;
75096;SDS011;63684;47.964;11.186;2024-03-08T13:51:06;17.33;;;10.57;;
75096;SDS011;63684;47.964;11.186;2024-03-08T13:53:32;14.07;;;9.93;;
75096;SDS011;63684;47.964;11.186;2024-03-08T13:56:00;17.43;;;10.27;;
75096;SDS011;63684;47.964;11.186;2024-03-08T13:58:30;18.00;;;10.43;;
75096;SDS011;63684;47.964;11.186;2024-03-08T14:00:56;13.37;;;9.83;;
75096;SDS011;63684;47.964;11.186;2024-03-08T14:03:22;15.07;;;10.67;;
75096;SDS011;63684;47.964;11.186;2024-03-08T14:05:48;15.87;;;10.17;;
75096;SDS011;63684;47.964;11.186;2024-03-08T14:08:14;17.60;;;10.37;;
75096;SDS011;63684;47.964;11.186;2024-03-08T14:10:41;14.73;;;10.77;;
75096;SDS011;63684;47.964;11.186;2024-03-08T14:13:07;15.13;;;10.83;;
75096;SDS011;63684;47.964;11.186;2024-03-08T14:15:34;17.97;;;10.40;;
75096;SDS011;63684;47.964;11.186;2024-03-08T14:18:00;13.60;;;10.27;;
75096;SDS011;63684;47.964;11.186;2024-03-08T14:20:26;14.93;;;9.80;;
75096;SDS011;63684;47.964;11.186;2024-03-08T14:22:55;18.10;;;10.30;;